Hlavní strana
METAR-TAF:

METAR-TAF

Letiště :

Bahrajn, Bahrajn

zeměpisná šířka: 26-16N, zeměpisná délka: 050-39E, výška: 2 m

Aktuální stav počasí

Zpráva byla vytvořena před 31 minutami, v 03:00 UTC
Západoseverozápadní vítr 12 kt
Teplota 13°C
Vlhkost vzduchu 72%
Tlak 1022 hPa
Viditelnost 10 km a více
Žádná oblačnost pod 1500 m, nevyskytují se cumulonimby.

METAR: OBBI 210300Z 29012KT CAVOK 13/08 Q1022 NOSIG

Čas: 06:31 (03:31 UTC)

Předpověď počasí

Zpráva byla vytvořena před 4 hodinami a 31 minutami, v 23:00 UTC
Předpověď platná od 21 v 00 UTC do 22 v 06 UTC
Severozápadní vítr 14 kt
Viditelnost 10 km a více
Polojasno ve výšce 2500 ft

TAF: OBBI 202300Z 2100/2206 32014KT 9999 SCT025

Stav a předpovědi počasí z více než 4 000 letišť (zprávy METAR a TAF).

Červené a žluté tečky na mapě představují dostupné meteorologické stanice.

Když kurzor umístíte na tečku, zobrazí se název stanice.

Pak kliknutím zobrazíte stav a předpověď počasí.

Chcete-li změnit mapu, kliknutím na zelené tlačítko se znaménkem +mapu přiblížíte, kliknutím na zelené tlačítko se znaménkem – mapu oddálíte a kliknutím na zelené šipky přejdete na sousední mapy.


METAR-TAF: